Rockland M P C, New York
Current Conditions -  °F | °C
As of 4:51 AM on Tuesday 21 Oct 2014 (Local Time) from KTEB Reporting Station
Overcast Overcast  
Wind Chill: 52°   Ceiling: 8000
Heat Index: 52°   Visibility: 10mi
Dew Point: 45°   Wind: 0mph
Humidity: 77%   Direction: NA
Pressure: 29.9"   Gusts: NA
Location:  41.1138°N, 74.0789°W
Report Text: KTEB 210851Z 00000KT 10SM BKN080 OVC120 11/07 A2990 RMK AO2 SLP125 T01110072 56013
Loading
Personal Weather Stations






























Interactive Weather Map
Tropical Storm Tracking
New forecast layout! Learn more

10-Day Weather Forecast

Advertisements
Track Severe Weather on mobile